Time;durP1;ratioP1;P1;durP2;ratioP2;P2;SDS_P1;SDS_P2;PMS_P1;PMS_P2;Temp;Humidity;BMP_temperature;BMP_pressure;BME280_temperature;BME280_humidity;BME280_pressure;Samples;Min_cycle;Max_cycle;Signal;HPM_P1;HPM_P2
2023/01/15 04:57:53;;;;;;;30.80;14.00;;;;;;;1.20;100.00;101303.48;107962;1283;548104;-67
2023/01/15 05:00:21;;;;;;;31.80;14.80;;;;;;;4.41;90.31;101280.09;108233;1284;23055;-59
2023/01/15 05:02:48;;;;;;;35.20;15.70;;;;;;;4.93;82.42;101276.24;108055;1285;21959;-60
2023/01/15 05:05:13;;;;;;;34.70;15.20;;;;;;;5.23;79.78;101282.70;108142;1285;23742;-59
2023/01/15 05:07:43;;;;;;;39.90;16.30;;;;;;;5.44;78.30;101291.38;108118;1285;22117;-68
2023/01/15 05:10:10;;;;;;;35.10;16.60;;;;;;;5.60;76.85;101295.56;107798;1283;360156;-68
2023/01/15 05:12:36;;;;;;;34.30;14.70;;;;;;;5.71;75.83;101293.21;108242;1283;22001;-69
2023/01/15 05:15:02;;;;;;;29.40;14.70;;;;;;;5.85;75.59;101291.77;108348;1283;21984;-59
2023/01/15 05:17:27;;;;;;;26.50;13.00;;;;;;;5.95;74.58;101291.11;108282;1275;23765;-68
2023/01/15 05:19:53;;;;;;;41.80;11.90;;;;;;;6.02;74.35;101291.64;107948;1283;1002872;-68
2023/01/15 05:22:19;;;;;;;26.70;12.40;;;;;;;6.13;74.29;101292.91;106111;1283;1003024;-69
2023/01/15 05:24:45;;;;;;;27.80;10.90;;;;;;;6.21;73.78;101293.08;108386;1283;22010;-59
2023/01/15 05:27:10;;;;;;;23.70;9.80;;;;;;;6.30;73.35;101293.60;108340;1283;22045;-59
2023/01/15 05:29:36;;;;;;;22.00;9.70;;;;;;;6.35;72.66;101296.48;108352;1283;21998;-58
2023/01/15 05:32:02;;;;;;;24.00;10.50;;;;;;;6.38;72.42;101297.61;108314;1283;21988;-70
2023/01/15 05:34:29;;;;;;;28.80;10.70;;;;;;;6.45;72.22;101297.02;108234;1283;21986;-59
2023/01/15 05:36:55;;;;;;;20.90;9.00;;;;;;;6.47;71.91;101295.69;108340;1283;22101;-59
2023/01/15 05:39:20;;;;;;;31.50;14.60;;;;;;;6.52;72.14;101298.39;108364;1283;22069;-70
2023/01/15 05:41:49;;;;;;;29.10;13.60;;;;;;;6.77;74.11;101300.23;108365;1283;22109;-59
2023/01/15 05:44:17;;;;;;;29.20;13.10;;;;;;;6.99;73.69;101304.12;108354;1283;22027;-70
2023/01/15 05:46:43;;;;;;;24.40;11.10;;;;;;;7.08;72.70;101305.66;108343;1283;22027;-60
2023/01/15 05:49:11;;;;;;;25.60;10.40;;;;;;;7.12;71.95;101305.73;108323;1271;21998;-59
2023/01/15 05:51:37;;;;;;;118.10;68.90;;;;;;;7.20;72.22;101300.11;108325;1283;22476;-58
2023/01/15 05:54:04;;;;;;;524.70;379.00;;;;;;;7.51;74.28;101290.62;108280;1283;21998;-70
2023/01/15 05:56:30;;;;;;;86.20;51.80;;;;;;;7.88;74.79;101291.16;108283;1283;21987;-59
2023/01/15 05:58:56;;;;;;;443.30;124.20;;;;;;;8.09;73.80;101285.65;108215;1283;21993;-60
2023/01/15 06:01:22;;;;;;;197.20;102.70;;;;;;;8.37;74.71;101289.14;108309;1275;21993;-71
2023/01/15 06:03:48;;;;;;;203.70;111.20;;;;;;;8.73;75.51;101284.98;108272;1283;21989;-60
2023/01/15 06:06:16;;;;;;;117.50;61.80;;;;;;;8.97;73.98;101283.80;108313;1283;21986;-72
2023/01/15 06:08:43;;;;;;;47.40;22.70;;;;;;;9.09;73.47;101287.59;108272;1283;21984;-60
2023/01/15 06:11:10;;;;;;;51.90;27.00;;;;;;;9.18;71.96;101295.73;108216;1283;21988;-71
2023/01/15 06:13:38;;;;;;;33.10;16.40;;;;;;;9.18;70.75;101298.52;108186;1270;21989;-71
2023/01/15 06:16:04;;;;;;;24.30;12.80;;;;;;;9.07;69.87;101300.18;108234;1283;23022;-71
2023/01/15 06:18:30;;;;;;;24.10;13.00;;;;;;;8.86;68.29;101301.73;108200;1283;23868;-71
2023/01/15 06:20:55;;;;;;;22.20;11.10;;;;;;;8.60;67.35;101303.05;108316;1282;22045;-72
2023/01/15 06:23:22;;;;;;;18.70;9.80;;;;;;;8.35;66.40;101305.04;108285;1283;22009;-71
2023/01/15 06:25:49;;;;;;;17.90;9.40;;;;;;;8.13;66.84;101301.44;108274;1280;21996;-71
2023/01/15 06:28:16;;;;;;;22.00;10.10;;;;;;;8.00;66.73;101299.53;108181;1270;21992;-59
2023/01/15 06:30:42;;;;;;;16.50;9.10;;;;;;;7.90;66.88;101296.60;108171;1283;21990;-59
2023/01/15 06:33:07;;;;;;;19.60;8.90;;;;;;;7.84;66.99;101295.47;108255;1283;21990;-59
2023/01/15 06:35:34;;;;;;;23.30;11.00;;;;;;;7.78;67.17;101295.73;108356;1276;21989;-59
2023/01/15 06:37:59;;;;;;;19.20;9.30;;;;;;;7.77;67.60;101294.50;108124;1283;21999;-59
2023/01/15 06:40:25;;;;;;;18.10;10.30;;;;;;;7.70;66.85;101292.83;108172;1282;22280;-59
2023/01/15 06:48:24;;;;;;;20.20;9.90;;;;;;;7.68;67.23;101288.77;108176;1283;21995;-60
2023/01/15 06:50:50;;;;;;;19.60;9.90;;;;;;;7.72;67.32;101288.65;108137;1273;21999;-60
2023/01/15 06:53:16;;;;;;;21.60;10.10;;;;;;;7.78;67.35;101289.95;108163;1270;22247;-71
2023/01/15 06:55:42;;;;;;;19.20;8.30;;;;;;;7.84;67.34;101290.56;108201;1283;21987;-59
2023/01/15 06:58:08;;;;;;;17.70;9.30;;;;;;;7.88;67.45;101289.59;108256;1283;22269;-59
2023/01/15 13:06:43;;;;;;;73.10;37.90;;;;;;;2.99;99.92;101110.70;107250;1282;1002300;-60
2023/01/15 13:09:34;;;;;;;76.60;49.20;;;;;;;6.16;88.92;101092.19;108273;1283;22415;-60
2023/01/15 13:12:00;;;;;;;58.10;41.30;;;;;;;6.70;81.65;101085.93;108073;1283;21995;-59
2023/01/15 13:14:29;;;;;;;44.00;29.00;;;;;;;6.95;79.16;101084.89;108130;1286;21998;-58
2023/01/15 13:17:21;;;;;;;31.30;18.50;;;;;;;7.13;77.54;101083.56;108133;1286;22022;-59
2023/01/15 13:20:23;;;;;;;33.30;18.30;;;;;;;7.26;76.10;101085.30;107992;1270;362444;-60
2023/01/15 13:22:54;;;;;;;31.30;17.70;;;;;;;7.34;75.33;101087.84;106704;1283;1002935;-61
2023/01/15 13:25:44;;;;;;;31.10;15.40;;;;;;;7.45;74.98;101089.55;108252;1283;21982;-58
2023/01/15 13:28:32;;;;;;;31.20;16.70;;;;;;;7.52;73.97;101085.79;108287;1283;21987;-60
2023/01/15 13:31:20;;;;;;;21.90;12.10;;;;;;;7.59;73.29;101081.31;108759;1266;22695;-70
2023/01/15 13:33:51;;;;;;;29.60;14.00;;;;;;;7.64;72.61;101077.35;108338;1284;22024;-60
2023/01/15 13:36:28;;;;;;;52.40;23.40;;;;;;;7.65;72.06;101074.94;108218;1284;21990;-63
2023/01/15 13:38:56;;;;;;;28.40;13.50;;;;;;;7.63;71.14;101071.77;108146;1284;21985;-69
2023/01/15 13:44:16;;;;;;;35.90;19.10;;;;;;;7.56;70.43;101074.31;108465;1282;21983;-60
2023/01/15 13:46:42;;;;;;;26.80;13.60;;;;;;;7.55;69.94;101076.56;108405;1281;21997;-60
2023/01/15 13:49:20;;;;;;;15.20;10.40;;;;;;;7.51;69.63;101073.03;108271;1283;22017;-60
2023/01/15 13:53:40;;;;;;;12.70;7.50;;;;;;;6.24;71.83;101076.19;107072;1294;547909;-71
2023/01/15 13:56:08;;;;;;;18.90;8.70;;;;;;;7.38;69.71;101067.11;107344;1295;22944;-60
2023/01/15 13:58:38;;;;;;;14.80;8.10;;;;;;;7.45;69.17;101065.80;107448;1296;22020;-70
2023/01/15 14:01:16;;;;;;;24.30;9.70;;;;;;;7.46;68.94;101065.46;108093;1296;23770;-71
2023/01/15 14:04:14;;;;;;;12.50;7.20;;;;;;;7.44;68.44;101064.05;107383;1296;23072;-69
2023/01/15 14:06:45;;;;;;;12.50;6.30;;;;;;;7.42;68.19;101058.43;107405;1290;195976;-69
2023/01/15 14:09:14;;;;;;;12.80;8.10;;;;;;;7.38;68.04;101056.12;107019;1292;1002741;-60
2023/01/15 14:12:04;;;;;;;17.60;10.60;;;;;;;7.37;67.99;101053.31;107857;1292;22001;-70
2023/01/15 14:14:58;;;;;;;20.10;10.70;;;;;;;7.40;68.23;101053.34;107686;1292;21996;-69
2023/01/15 14:17:27;;;;;;;17.90;9.50;;;;;;;7.36;67.64;101053.83;108033;1289;21997;-62
2023/01/15 14:20:16;;;;;;;17.00;9.60;;;;;;;7.21;66.61;101056.27;108971;1274;22466;-63
2023/01/15 14:22:57;;;;;;;19.10;10.80;;;;;;;7.01;66.11;101060.54;107976;1280;21995;-67
2023/01/15 14:25:22;;;;;;;17.80;9.40;;;;;;;6.84;65.85;101060.84;107948;1292;21993;-67
2023/01/15 14:28:06;;;;;;;19.10;10.30;;;;;;;6.73;65.87;101058.75;107841;1292;21994;-68
2023/01/15 14:30:47;;;;;;;17.20;9.70;;;;;;;6.63;66.01;101059.32;107824;1292;22164;-67
2023/01/15 14:33:16;;;;;;;17.10;8.70;;;;;;;6.55;66.16;101061.64;107817;1280;21993;-63
2023/01/15 14:35:46;;;;;;;19.10;9.60;;;;;;;6.49;66.03;101059.28;107766;1292;22458;-68
2023/01/15 14:38:14;;;;;;;16.40;9.90;;;;;;;6.53;66.25;101063.70;107672;1290;21993;-68
2023/01/15 14:40:53;;;;;;;13.70;7.90;;;;;;;6.53;66.47;101056.56;107730;1292;22016;-69
2023/01/15 14:43:19;;;;;;;6.40;4.20;;;;;;;6.46;65.71;101057.14;107511;1292;22125;-68
2023/01/15 14:45:47;;;;;;;6.60;4.00;;;;;;;6.42;65.37;101061.96;107508;1292;22003;-69
2023/01/15 14:48:28;;;;;;;10.70;7.10;;;;;;;6.34;64.96;101061.85;107803;1292;22172;-69
2023/01/15 14:51:14;;;;;;;12.30;9.60;;;;;;;6.31;65.01;101058.65;107785;1290;22036;-70
2023/01/15 14:54:02;;;;;;;6.30;4.60;;;;;;;6.22;64.66;101057.47;107764;1292;23055;-70
2023/01/15 14:56:31;;;;;;;5.90;3.70;;;;;;;6.12;64.74;101056.61;107752;1292;22004;-68
2023/01/15 14:59:12;;;;;;;6.00;4.20;;;;;;;6.07;64.58;101059.83;107870;1291;22011;-68
2023/01/15 15:01:53;;;;;;;6.30;3.70;;;;;;;6.11;64.61;101054.84;107852;1292;22079;-68
2023/01/15 15:04:52;;;;;;;8.40;5.10;;;;;;;6.15;64.61;101054.04;107660;1292;22152;-69
2023/01/15 15:07:24;;;;;;;9.60;4.90;;;;;;;6.19;64.52;101055.67;107832;1287;21994;-68
2023/01/15 15:10:17;;;;;;;8.20;4.70;;;;;;;6.15;64.54;101056.48;107651;1286;23332;-62
2023/01/15 15:12:47;;;;;;;18.30;7.50;;;;;;;6.16;64.54;101055.27;107849;1292;22004;-61
2023/01/15 15:15:13;;;;;;;;;;;;;;;6.07;64.21;101058.45;107632;1292;21973;-67
2023/01/15 15:17:39;;;;;;;5.50;3.50;;;;;;;5.90;64.25;101061.95;107746;1286;22000;-62
2023/01/15 15:20:21;;;;;;;7.70;4.00;;;;;;;6.01;64.36;101061.79;107868;1292;21993;-68
2023/01/15 15:22:48;;;;;;;8.50;3.90;;;;;;;6.02;64.64;101062.19;107743;1289;21992;-68
2023/01/15 15:25:20;;;;;;;8.00;3.80;;;;;;;5.97;64.57;101060.33;107672;1292;21996;-68
2023/01/15 15:27:46;;;;;;;12.40;5.60;;;;;;;6.00;64.40;101066.46;107892;1292;22032;-62
2023/01/15 15:30:14;;;;;;;18.30;6.50;;;;;;;5.98;64.35;101070.45;107919;1292;22077;-63
2023/01/15 15:32:42;;;;;;;6.90;3.60;;;;;;;5.84;64.29;101074.90;107795;1292;21993;-63
2023/01/15 15:35:23;;;;;;;9.00;4.50;;;;;;;5.85;64.14;101074.05;107869;1292;21999;-69
2023/01/15 15:37:49;;;;;;;33.00;20.50;;;;;;;5.77;64.06;101071.80;107766;1292;22006;-63
2023/01/15 15:40:16;;;;;;;34.10;16.20;;;;;;;5.85;64.36;101070.73;107582;1292;22027;-69
2023/01/15 15:49:04;;;;;;;7.10;5.50;;;;;;;5.82;64.68;101066.33;107759;1292;21998;-70
2023/01/15 15:51:41;;;;;;;5.90;3.60;;;;;;;5.89;64.67;101059.67;107688;1291;21994;-63
2023/01/15 15:54:14;;;;;;;7.00;3.40;;;;;;;6.03;64.95;101058.20;107700;1291;22107;-69
2023/01/15 15:56:52;;;;;;;6.20;3.50;;;;;;;6.14;64.92;101057.33;108151;1282;22030;-63
2023/01/15 15:59:37;;;;;;;5.20;3.30;;;;;;;6.18;64.97;101058.09;107881;1291;21995;-69
2023/01/15 19:37:07;;;;;;;33.80;20.80;;;;;;;2.47;100.00;100953.94;107392;1289;548378;-61
2023/01/15 19:39:33;;;;;;;27.40;16.70;;;;;;;5.79;93.83;100936.16;107650;1293;23729;-67
2023/01/15 19:50:18;;;;;;;29.90;23.60;;;;;;;7.17;78.93;100933.50;107584;1291;224531;-62
2023/01/15 19:52:47;;;;;;;19.90;14.40;;;;;;;7.28;77.78;100928.03;107828;1290;23179;-62
2023/01/15 19:55:14;;;;;;;17.30;11.20;;;;;;;7.33;76.78;100925.64;107710;1289;22043;-62
2023/01/15 19:57:42;;;;;;;14.00;9.10;;;;;;;7.34;75.52;100919.54;107895;1289;22581;-62
2023/01/15 20:00:15;;;;;;;11.10;7.30;;;;;;;7.36;75.18;100913.45;107906;1289;23009;-69
2023/01/15 20:02:42;;;;;;;11.30;7.50;;;;;;;7.43;74.68;100912.47;107894;1286;22041;-68
2023/01/15 20:05:08;;;;;;;10.70;7.60;;;;;;;7.48;74.18;100912.52;107883;1289;21992;-68
2023/01/15 20:07:34;;;;;;;12.00;8.50;;;;;;;7.50;73.42;100911.32;107991;1286;22033;-69
2023/01/15 20:10:00;;;;;;;13.30;8.90;;;;;;;7.52;73.01;100906.78;107878;1279;22000;-70
2023/01/15 20:15:11;;;;;;;18.20;11.10;;;;;;;7.54;72.64;100897.71;107913;1288;21990;-62
2023/01/15 20:17:37;;;;;;;22.50;13.20;;;;;;;7.55;72.29;100896.52;107863;1289;21996;-63
2023/01/15 20:20:03;;;;;;;20.70;11.80;;;;;;;7.56;72.20;100894.24;107853;1289;21998;-69
2023/01/15 20:22:30;;;;;;;19.70;12.50;;;;;;;7.56;72.05;100889.01;107874;1283;21996;-69
2023/01/15 20:24:56;;;;;;;21.80;12.90;;;;;;;7.56;71.69;100881.15;107853;1285;21996;-69
2023/01/15 20:27:22;;;;;;;23.30;12.40;;;;;;;7.57;71.61;100880.11;107802;1284;21992;-65
2023/01/15 20:32:34;;;;;;;22.20;12.10;;;;;;;7.56;71.03;100881.49;107707;1289;21999;-62
2023/01/15 20:35:02;;;;;;;20.80;12.10;;;;;;;7.56;70.88;100890.75;107882;1289;21993;-62
2023/01/15 20:37:29;;;;;;;17.80;10.60;;;;;;;7.56;70.59;100895.64;107841;1289;21992;-62
2023/01/15 20:39:55;;;;;;;18.60;10.30;;;;;;;7.60;70.71;100895.67;107834;1289;22193;-62
2023/01/15 20:45:09;;;;;;;21.00;10.90;;;;;;;7.67;70.40;100886.11;107881;1276;21999;-69
2023/01/15 20:50:20;;;;;;;14.90;9.30;;;;;;;7.71;69.90;100883.72;107930;1281;21999;-62
2023/01/15 20:52:48;;;;;;;13.40;8.50;;;;;;;7.77;69.51;100883.58;107935;1289;21992;-69
2023/01/15 20:55:14;;;;;;;13.00;7.80;;;;;;;7.78;69.45;100887.77;107826;1278;22085;-69
2023/01/15 20:57:40;;;;;;;13.70;7.50;;;;;;;7.79;69.07;100890.77;107774;1289;23122;-69
2023/01/15 21:00:09;;;;;;;10.90;6.80;;;;;;;7.81;69.12;100891.82;107810;1289;21982;-62
2023/01/15 21:02:34;;;;;;;12.20;8.00;;;;;;;7.83;69.06;100887.98;107829;1289;22011;-69
2023/01/15 21:05:00;;;;;;;12.80;7.90;;;;;;;7.84;68.91;100881.17;107771;1289;21992;-69
2023/01/15 21:07:26;;;;;;;11.50;8.40;;;;;;;7.86;68.91;100878.23;107814;1289;21997;-62
2023/01/15 21:09:52;;;;;;;16.60;9.60;;;;;;;7.90;68.74;100873.88;107758;1289;22033;-69
2023/01/15 21:12:17;;;;;;;15.90;10.60;;;;;;;7.96;68.42;100870.08;107759;1289;21998;-69
2023/01/15 21:14:43;;;;;;;15.80;9.70;;;;;;;7.96;68.05;100870.06;107800;1289;22007;-69
2023/01/15 21:17:09;;;;;;;16.80;10.80;;;;;;;7.88;68.11;100867.23;107816;1289;21987;-69
2023/01/15 21:19:36;;;;;;;14.80;9.70;;;;;;;7.86;68.11;100866.89;107800;1289;22074;-68
2023/01/15 21:22:01;;;;;;;16.90;10.50;;;;;;;7.86;68.16;100868.10;107786;1289;22035;-68
2023/01/15 21:24:27;;;;;;;16.10;10.70;;;;;;;7.87;68.31;100866.35;107804;1289;21994;-68
2023/01/15 21:26:54;;;;;;;15.70;10.60;;;;;;;7.88;68.34;100867.95;107789;1289;22009;-69
2023/01/15 21:29:23;;;;;;;18.60;11.10;;;;;;;7.89;68.11;100870.05;107771;1287;22009;-69
2023/01/15 21:31:48;;;;;;;15.90;11.20;;;;;;;7.91;68.00;100864.98;107809;1276;21991;-69
2023/01/15 21:34:14;;;;;;;14.30;9.60;;;;;;;7.93;68.13;100856.61;107730;1286;21996;-61
2023/01/15 21:36:41;;;;;;;15.10;10.50;;;;;;;7.94;68.06;100848.05;107618;1289;21997;-69
2023/01/15 21:39:10;;;;;;;15.00;9.70;;;;;;;7.97;68.11;100846.66;107767;1289;22035;-69
2023/01/15 21:44:42;;;;;;;15.50;9.50;;;;;;;8.04;67.90;100843.56;107771;1289;22002;-62
2023/01/15 21:47:12;;;;;;;12.90;8.30;;;;;;;8.07;67.68;100838.17;107767;1289;22015;-69
2023/01/15 21:49:38;;;;;;;15.10;9.30;;;;;;;8.10;67.40;100833.29;107824;1289;22004;-63
2023/01/15 21:52:06;;;;;;;14.20;8.20;;;;;;;8.11;67.33;100832.41;107910;1289;23310;-68
2023/01/15 21:54:31;;;;;;;11.00;7.50;;;;;;;8.14;67.40;100828.59;107943;1289;23711;-70
